createdAt,value
2018-03-07T00:00:39.808Z,82.51
2018-03-07T00:03:07.297Z,82.39
2018-03-07T00:05:34.737Z,82.62
2018-03-07T00:08:02.154Z,82.83
2018-03-07T00:10:29.629Z,83.29
2018-03-07T00:12:57.126Z,83.21
2018-03-07T00:15:24.571Z,83.13
2018-03-07T00:17:52.001Z,82.85
2018-03-07T00:20:19.407Z,82.65
2018-03-07T00:22:46.879Z,82.50
2018-03-07T00:25:14.346Z,82.63
2018-03-07T00:27:41.841Z,82.68
2018-03-07T00:30:09.270Z,83.16
2018-03-07T00:32:36.731Z,82.91
2018-03-07T00:35:04.154Z,83.05
2018-03-07T00:37:31.576Z,83.28
2018-03-07T00:39:59.133Z,83.52
2018-03-07T00:42:26.556Z,83.81
2018-03-07T00:44:53.956Z,84.16
2018-03-07T00:47:21.362Z,84.05
2018-03-07T00:49:48.761Z,83.98
2018-03-07T00:52:16.184Z,83.93
2018-03-07T00:54:43.601Z,84.37
2018-03-07T00:57:11.062Z,84.45
2018-03-07T00:59:38.487Z,84.58
2018-03-07T01:02:05.885Z,84.94
2018-03-07T01:04:33.351Z,85.04
2018-03-07T01:07:00.781Z,85.53
2018-03-07T01:09:28.244Z,85.67
2018-03-07T01:11:55.645Z,85.26
2018-03-07T01:14:23.090Z,85.46
2018-03-07T01:16:50.498Z,85.86
2018-03-07T01:19:17.925Z,86.07
2018-03-07T01:21:45.385Z,86.21
2018-03-07T01:24:17.983Z,86.73
2018-03-07T01:26:46.667Z,86.82
2018-03-07T01:29:14.111Z,86.86
2018-03-07T01:31:41.632Z,86.90
2018-03-07T01:34:09.095Z,87.16
2018-03-07T01:36:36.560Z,87.41
2018-03-07T01:39:04.009Z,87.91
2018-03-07T01:41:31.436Z,87.63
2018-03-07T01:43:58.854Z,87.68
2018-03-07T01:46:26.275Z,87.53
2018-03-07T01:48:53.720Z,87.49
2018-03-07T01:51:21.164Z,87.64
2018-03-07T01:53:48.686Z,87.60
2018-03-07T01:56:16.209Z,87.44
2018-03-07T01:58:43.657Z,87.56
2018-03-07T02:01:11.065Z,87.47
2018-03-07T02:03:52.774Z,87.33
2018-03-07T02:06:20.241Z,86.97
2018-03-07T02:08:47.665Z,87.02
2018-03-07T02:11:15.105Z,87.22
2018-03-07T02:13:42.625Z,87.48
2018-03-07T02:16:10.022Z,87.33
2018-03-07T02:18:37.488Z,87.06
2018-03-07T02:21:04.898Z,87.09
2018-03-07T02:23:32.344Z,87.10
2018-03-07T02:25:59.748Z,87.02
2018-03-07T02:28:27.180Z,87.37
2018-03-07T02:30:54.698Z,87.67
2018-03-07T02:33:22.106Z,87.72
2018-03-07T02:35:49.536Z,87.73
2018-03-07T02:38:16.993Z,87.88
2018-03-07T02:40:45.359Z,88.04
2018-03-07T02:43:12.766Z,88.28
2018-03-07T02:45:40.181Z,88.55
2018-03-07T02:48:07.607Z,88.39
2018-03-07T02:50:35.016Z,88.32
2018-03-07T02:53:02.448Z,88.25
2018-03-07T02:55:29.876Z,88.42
2018-03-07T02:57:57.286Z,88.46
2018-03-07T03:00:24.702Z,88.38
2018-03-07T03:02:52.190Z,88.41
2018-03-07T03:05:19.818Z,88.16
2018-03-07T03:07:47.243Z,88.15
2018-03-07T03:10:14.681Z,88.16
2018-03-07T03:12:42.127Z,88.05
2018-03-07T03:15:09.553Z,87.94
2018-03-07T03:17:36.974Z,87.88
2018-03-07T03:20:04.411Z,87.99
2018-03-07T03:22:31.837Z,87.88
2018-03-07T03:24:59.317Z,88.11
2018-03-07T03:27:26.726Z,88.04
2018-03-07T03:29:54.142Z,88.09
2018-03-07T03:32:21.542Z,88.05
2018-03-07T03:34:48.954Z,88.05
2018-03-07T03:37:16.351Z,88.20
2018-03-07T03:39:43.798Z,88.08
2018-03-07T03:42:11.238Z,88.26
2018-03-07T03:44:38.670Z,88.15
2018-03-07T03:47:06.096Z,88.38
2018-03-07T03:49:33.494Z,88.54
2018-03-07T03:52:00.921Z,88.53
2018-03-07T03:54:28.308Z,88.55
2018-03-07T03:56:55.766Z,88.43
2018-03-07T03:59:23.262Z,88.22
2018-03-07T04:01:50.678Z,87.99
2018-03-07T04:04:18.082Z,88.11
2018-03-07T04:06:45.583Z,88.05
2018-03-07T04:09:12.986Z,88.56
2018-03-07T04:11:40.411Z,88.66
2018-03-07T04:14:07.849Z,88.59
2018-03-07T04:16:35.274Z,88.67
2018-03-07T04:19:02.674Z,88.76
2018-03-07T04:21:30.089Z,89.15
2018-03-07T04:23:57.495Z,89.38
2018-03-07T04:26:24.920Z,89.53
2018-03-07T04:28:52.328Z,89.52
2018-03-07T04:31:19.748Z,89.49
2018-03-07T04:33:47.155Z,89.60
2018-03-07T04:36:14.746Z,90.10
2018-03-07T04:38:42.157Z,90.55
2018-03-07T04:41:10.021Z,90.70
2018-03-07T04:43:37.436Z,91.28
2018-03-07T04:46:04.896Z,91.59
2018-03-07T04:48:32.296Z,91.78
2018-03-07T04:50:59.708Z,91.67
2018-03-07T04:53:27.131Z,91.55
2018-03-07T04:55:54.575Z,91.35
2018-03-07T04:58:21.988Z,91.32
2018-03-07T05:00:49.420Z,91.27
2018-03-07T05:03:16.896Z,91.90
2018-03-07T05:05:44.306Z,92.08
2018-03-07T05:08:11.738Z,92.00
2018-03-07T05:10:39.152Z,91.77
2018-03-07T05:13:06.561Z,91.85
2018-03-07T05:15:34.010Z,91.85
2018-03-07T05:18:01.422Z,91.64
2018-03-07T05:20:28.837Z,91.65
2018-03-07T05:22:56.270Z,91.57
2018-03-07T05:25:23.679Z,91.54
2018-03-07T05:27:51.091Z,91.46
2018-03-07T05:30:18.504Z,91.56
2018-03-07T05:32:45.947Z,91.32
2018-03-07T05:35:13.414Z,91.22
2018-03-07T05:37:40.807Z,91.08
2018-03-07T05:40:08.209Z,90.90
2018-03-07T05:42:35.673Z,90.80
2018-03-07T05:45:03.093Z,90.74
2018-03-07T05:47:30.686Z,90.66
2018-03-07T05:49:58.081Z,90.93
2018-03-07T05:52:26.402Z,91.12
2018-03-07T05:54:53.806Z,91.09
2018-03-07T05:57:21.206Z,90.99
2018-03-07T05:59:48.629Z,90.86
2018-03-07T06:02:16.032Z,90.84
2018-03-07T06:04:43.450Z,90.65
2018-03-07T06:07:10.853Z,90.45
2018-03-07T06:09:38.278Z,90.29
2018-03-07T06:12:05.696Z,90.03
2018-03-07T06:14:33.155Z,89.99
2018-03-07T06:17:00.610Z,89.87
2018-03-07T06:19:27.982Z,89.77
2018-03-07T06:21:55.413Z,89.73
2018-03-07T06:24:22.896Z,89.63
2018-03-07T06:26:50.373Z,89.39
2018-03-07T06:29:17.830Z,89.13
2018-03-07T06:31:45.251Z,88.97
2018-03-07T06:34:12.683Z,88.80
2018-03-07T06:36:40.135Z,88.47
2018-03-07T06:39:07.604Z,88.35
2018-03-07T06:41:35.010Z,88.69
2018-03-07T06:44:02.446Z,88.91
2018-03-07T06:46:29.923Z,88.82
2018-03-07T06:48:57.328Z,88.53
2018-03-07T06:51:24.793Z,88.47
2018-03-07T06:53:52.241Z,88.32
2018-03-07T06:56:19.684Z,87.91
2018-03-07T06:58:47.109Z,87.22
2018-03-07T07:01:14.524Z,87.10
2018-03-07T07:03:41.965Z,87.74
2018-03-07T07:06:09.396Z,88.47
2018-03-07T07:08:36.811Z,89.15
2018-03-07T07:11:04.215Z,89.36
2018-03-07T07:13:31.661Z,89.53
2018-03-07T07:15:59.115Z,89.39
2018-03-07T07:18:26.525Z,89.47
2018-03-07T07:20:53.948Z,89.04
2018-03-07T07:23:21.356Z,88.09
2018-03-07T07:25:48.778Z,88.27
2018-03-07T07:28:16.183Z,88.47
2018-03-07T07:30:43.609Z,88.58
2018-03-07T07:33:11.018Z,88.50
2018-03-07T07:35:38.435Z,88.28
2018-03-07T07:38:05.861Z,88.09
2018-03-07T07:40:33.278Z,87.87
2018-03-07T07:43:00.848Z,87.57
2018-03-07T07:45:28.277Z,87.50
2018-03-07T07:47:55.720Z,87.47
2018-03-07T07:50:23.165Z,87.30
2018-03-07T07:52:50.581Z,86.75
2018-03-07T07:55:18.002Z,86.14
2018-03-07T07:57:45.411Z,85.15
2018-03-07T08:00:12.870Z,84.28
2018-03-07T08:02:40.334Z,83.00
2018-03-07T08:05:07.846Z,82.56
2018-03-07T08:07:35.277Z,80.77
2018-03-07T08:10:02.719Z,79.00
2018-03-07T08:12:30.129Z,77.72
2018-03-07T08:14:58.287Z,76.46
2018-03-07T08:17:25.727Z,74.81
2018-03-07T08:19:53.190Z,74.33
2018-03-07T08:22:20.629Z,74.88
2018-03-07T08:24:48.066Z,74.70
2018-03-07T08:27:15.534Z,75.43
2018-03-07T08:29:42.986Z,78.81
2018-03-07T08:32:10.402Z,81.03
2018-03-07T08:34:37.822Z,80.96
2018-03-07T08:37:05.239Z,79.74
2018-03-07T08:39:32.640Z,78.92
2018-03-07T08:42:00.071Z,78.07
2018-03-07T08:44:27.477Z,76.48
2018-03-07T08:46:54.903Z,76.43
2018-03-07T08:49:22.293Z,74.97
2018-03-07T08:51:49.734Z,73.09
2018-03-07T08:54:17.145Z,70.46
2018-03-07T08:56:44.570Z,68.49
2018-03-07T08:59:11.974Z,66.82
2018-03-07T09:01:39.388Z,65.33
2018-03-07T09:04:06.813Z,61.51
2018-03-07T09:06:34.325Z,58.91
2018-03-07T09:09:01.767Z,59.94
2018-03-07T09:11:29.201Z,58.04
2018-03-07T09:13:56.605Z,58.62
2018-03-07T09:16:24.010Z,58.79
2018-03-07T09:18:51.475Z,59.33
2018-03-07T09:21:18.917Z,58.83
2018-03-07T09:23:46.322Z,58.90
2018-03-07T09:26:13.949Z,58.72
2018-03-07T09:28:41.361Z,58.22
2018-03-07T09:31:08.779Z,58.19
2018-03-07T09:33:36.195Z,58.35
2018-03-07T09:36:03.652Z,58.45
2018-03-07T09:38:31.065Z,58.30
2018-03-07T09:40:58.563Z,57.37
2018-03-07T09:43:25.977Z,57.06
2018-03-07T09:45:53.379Z,56.40
2018-03-07T09:48:20.819Z,55.97
2018-03-07T09:50:48.233Z,55.95
2018-03-07T09:53:15.670Z,55.92
2018-03-07T09:55:43.088Z,54.28
2018-03-07T09:58:10.513Z,54.25
2018-03-07T10:00:37.982Z,54.79
2018-03-07T10:03:05.398Z,55.00
2018-03-07T10:05:32.815Z,54.74
2018-03-07T10:08:00.234Z,54.75
2018-03-07T10:10:27.641Z,54.24
2018-03-07T10:12:55.182Z,51.55
2018-03-07T10:15:22.589Z,51.12
2018-03-07T10:17:49.999Z,52.04
2018-03-07T10:20:17.441Z,52.84
2018-03-07T10:22:44.885Z,51.85
2018-03-07T10:25:12.274Z,52.00
2018-03-07T10:27:39.720Z,52.99
2018-03-07T10:30:07.149Z,52.36
2018-03-07T10:32:34.565Z,51.45
2018-03-07T10:35:01.975Z,50.74
2018-03-07T10:37:29.415Z,49.89
2018-03-07T10:39:56.849Z,48.91
2018-03-07T10:42:24.287Z,48.08
2018-03-07T10:44:51.730Z,49.24
2018-03-07T10:47:19.153Z,48.32
2018-03-07T10:49:46.598Z,47.45
2018-03-07T10:52:14.324Z,47.57
2018-03-07T10:54:41.765Z,47.61
2018-03-07T10:57:09.193Z,48.03
2018-03-07T10:59:36.615Z,47.51
2018-03-07T11:02:04.098Z,48.09
2018-03-07T11:04:31.526Z,47.10
2018-03-07T11:06:58.976Z,48.17
2018-03-07T11:09:26.396Z,47.88
2018-03-07T11:11:53.824Z,47.93
2018-03-07T11:14:21.259Z,47.13
2018-03-07T11:16:48.696Z,47.38
2018-03-07T11:19:16.173Z,47.43
2018-03-07T11:21:43.583Z,47.11
2018-03-07T11:24:11.081Z,46.86
2018-03-07T11:26:38.486Z,46.37
2018-03-07T11:29:05.946Z,48.16
2018-03-07T11:31:33.370Z,48.41
2018-03-07T11:34:00.899Z,46.11
2018-03-07T11:36:28.345Z,45.89
2018-03-07T11:38:55.796Z,45.94
2018-03-07T11:41:23.298Z,46.82
2018-03-07T11:43:50.733Z,47.83
2018-03-07T11:46:18.170Z,45.82
2018-03-07T11:48:45.581Z,45.42
2018-03-07T11:51:13.002Z,44.20
2018-03-07T11:53:40.435Z,43.30
2018-03-07T11:56:07.869Z,45.61
2018-03-07T11:58:35.281Z,45.04
2018-03-07T12:01:02.704Z,44.20
2018-03-07T12:03:30.187Z,43.67
2018-03-07T12:05:57.633Z,43.15
2018-03-07T12:08:25.064Z,43.37
2018-03-07T12:10:52.480Z,45.24
2018-03-07T12:13:19.894Z,43.57
2018-03-07T12:15:47.327Z,44.36
2018-03-07T12:18:14.741Z,45.00
2018-03-07T12:20:42.182Z,45.02
2018-03-07T12:23:09.605Z,43.89
2018-03-07T12:25:37.018Z,44.50
2018-03-07T12:28:04.455Z,44.82
2018-03-07T12:30:31.946Z,45.26
2018-03-07T12:32:59.378Z,43.61
2018-03-07T12:35:26.812Z,45.43
2018-03-07T12:37:54.234Z,45.78
2018-03-07T12:40:21.661Z,46.11
2018-03-07T12:42:49.068Z,45.53
2018-03-07T12:45:16.502Z,46.56
2018-03-07T12:47:43.924Z,45.54
2018-03-07T12:50:11.368Z,45.14
2018-03-07T12:52:38.793Z,44.88
2018-03-07T12:55:06.238Z,45.88
2018-03-07T12:57:33.649Z,45.54
2018-03-07T13:00:01.054Z,45.48
2018-03-07T13:02:28.508Z,45.50
2018-03-07T13:04:55.901Z,45.91
2018-03-07T13:07:23.404Z,44.91
2018-03-07T13:09:50.815Z,44.99
2018-03-07T13:12:18.431Z,44.31
2018-03-07T13:14:45.838Z,44.27
2018-03-07T13:17:13.277Z,42.96
2018-03-07T13:19:40.693Z,41.72
2018-03-07T13:22:08.102Z,41.80
2018-03-07T13:24:35.502Z,41.30
2018-03-07T13:27:02.927Z,40.67
2018-03-07T13:29:30.358Z,41.44
2018-03-07T13:31:57.798Z,41.08
2018-03-07T13:34:25.213Z,41.20
2018-03-07T13:36:52.629Z,40.64
2018-03-07T13:39:20.086Z,39.09
2018-03-07T13:41:47.562Z,40.34
2018-03-07T13:44:15.032Z,41.37
2018-03-07T13:46:42.451Z,40.44
2018-03-07T13:49:09.858Z,41.32
2018-03-07T13:51:37.286Z,41.24
2018-03-07T13:54:04.811Z,42.07
2018-03-07T13:56:32.245Z,40.45
2018-03-07T13:58:59.694Z,39.55
2018-03-07T14:01:27.132Z,39.76
2018-03-07T14:03:54.538Z,39.78
2018-03-07T14:06:22.209Z,40.21
2018-03-07T14:08:49.637Z,40.49
2018-03-07T14:11:17.077Z,40.89
2018-03-07T14:13:44.541Z,41.33
2018-03-07T14:16:11.969Z,41.77
2018-03-07T14:18:39.469Z,40.90
2018-03-07T14:21:06.874Z,41.91
2018-03-07T14:23:34.287Z,41.48
2018-03-07T14:26:01.707Z,42.37
2018-03-07T14:28:29.148Z,41.90
2018-03-07T14:30:56.554Z,41.36
2018-03-07T14:33:23.975Z,41.40
2018-03-07T14:35:51.394Z,41.35
2018-03-07T14:38:18.831Z,41.69
2018-03-07T14:40:46.250Z,41.21
2018-03-07T14:43:13.673Z,41.09
2018-03-07T14:45:41.093Z,41.16
2018-03-07T14:48:08.575Z,41.63
2018-03-07T14:50:36.075Z,41.66
2018-03-07T14:53:03.494Z,41.30
2018-03-07T14:55:30.911Z,40.28
2018-03-07T14:57:58.365Z,41.41
2018-03-07T15:00:25.914Z,40.85
2018-03-07T15:02:53.346Z,40.95
2018-03-07T15:05:20.780Z,42.01
2018-03-07T15:07:48.238Z,42.44
2018-03-07T15:10:15.722Z,43.91
2018-03-07T15:12:43.159Z,45.25
2018-03-07T15:15:10.587Z,46.61
2018-03-07T15:17:38.013Z,46.26
2018-03-07T15:20:05.452Z,46.60
2018-03-07T15:22:33.473Z,46.45
2018-03-07T15:25:00.911Z,47.75
2018-03-07T15:27:28.329Z,47.76
2018-03-07T15:29:55.743Z,46.93
2018-03-07T15:32:23.182Z,47.08
2018-03-07T15:34:50.600Z,48.05
2018-03-07T15:37:18.016Z,47.92
2018-03-07T15:39:45.436Z,47.87
2018-03-07T15:42:12.938Z,46.92
2018-03-07T15:44:40.362Z,47.58
2018-03-07T15:47:07.898Z,47.73
2018-03-07T15:49:35.374Z,46.95
2018-03-07T15:52:02.793Z,46.98
2018-03-07T15:54:30.212Z,45.44
2018-03-07T15:56:57.637Z,46.60
2018-03-07T15:59:25.058Z,47.45
2018-03-07T16:01:52.462Z,47.74
2018-03-07T16:04:19.883Z,48.37
2018-03-07T16:06:47.290Z,48.08
2018-03-07T16:09:14.779Z,52.64
2018-03-07T16:11:42.186Z,60.32
2018-03-07T16:14:09.589Z,62.64
2018-03-07T16:16:37.000Z,64.09
2018-03-07T16:19:04.428Z,65.74
2018-03-07T16:21:31.840Z,66.65
2018-03-07T16:23:59.289Z,67.41
2018-03-07T16:26:26.758Z,67.97
2018-03-07T16:28:54.162Z,68.25
2018-03-07T16:31:21.580Z,68.23
2018-03-07T16:33:49.006Z,68.08
2018-03-07T16:36:16.580Z,67.79
2018-03-07T16:38:43.982Z,67.69
2018-03-07T16:41:11.469Z,67.75
2018-03-07T16:43:38.909Z,68.21
2018-03-07T16:46:06.322Z,68.38
2018-03-07T16:48:33.727Z,68.87
2018-03-07T16:51:01.164Z,68.69
2018-03-07T16:53:28.549Z,68.32
2018-03-07T16:55:56.190Z,68.09
2018-03-07T16:58:23.597Z,68.96
2018-03-07T17:00:51.002Z,69.24
2018-03-07T17:03:18.398Z,68.56
2018-03-07T17:05:45.815Z,69.52
2018-03-07T17:08:13.245Z,70.12
2018-03-07T17:10:40.710Z,70.42
2018-03-07T17:13:08.121Z,70.67
2018-03-07T17:15:35.529Z,70.30
2018-03-07T17:18:03.422Z,71.24
2018-03-07T17:20:30.821Z,71.87
2018-03-07T17:22:58.326Z,72.10
2018-03-07T17:25:25.775Z,72.70
2018-03-07T17:27:53.184Z,72.24
2018-03-07T17:30:20.590Z,72.30
2018-03-07T17:32:48.025Z,72.69
2018-03-07T17:35:15.497Z,72.93
2018-03-07T17:37:42.924Z,72.65
2018-03-07T17:40:10.385Z,72.64
2018-03-07T17:42:37.811Z,71.76
2018-03-07T17:45:05.216Z,71.06
2018-03-07T17:47:32.643Z,68.46
2018-03-07T17:50:00.054Z,68.58
2018-03-07T17:52:27.455Z,68.92
2018-03-07T17:54:54.861Z,69.69
2018-03-07T17:57:22.271Z,69.70
2018-03-07T17:59:49.682Z,70.25
2018-03-07T18:02:17.648Z,70.59
2018-03-07T18:04:45.218Z,70.48
2018-03-07T18:07:12.622Z,71.11
2018-03-07T18:09:40.043Z,71.30
2018-03-07T18:12:07.506Z,71.53
2018-03-07T18:14:34.914Z,71.87
2018-03-07T18:17:02.348Z,72.29
2018-03-07T18:19:29.760Z,72.45
2018-03-07T18:21:57.177Z,72.67
2018-03-07T18:24:24.593Z,73.13
2018-03-07T18:26:52.037Z,73.28
2018-03-07T18:29:19.454Z,73.28
2018-03-07T18:31:46.853Z,73.84
2018-03-07T18:34:14.258Z,74.11
2018-03-07T18:36:41.664Z,74.14
2018-03-07T18:39:09.104Z,74.17
2018-03-07T18:41:36.530Z,74.29
2018-03-07T18:44:03.948Z,74.35
2018-03-07T18:46:31.479Z,74.91
2018-03-07T18:48:58.890Z,74.31
2018-03-07T18:51:26.290Z,74.42
2018-03-07T18:53:53.694Z,74.86
2018-03-07T18:56:21.093Z,74.53
2018-03-07T18:58:48.501Z,74.13
2018-03-07T19:01:15.906Z,73.90
2018-03-07T19:03:43.305Z,73.56
2018-03-07T19:06:10.723Z,73.19
2018-03-07T19:08:38.141Z,72.84
2018-03-07T19:11:05.541Z,72.72
2018-03-07T19:13:32.948Z,73.69
2018-03-07T19:16:00.343Z,73.31
2018-03-07T19:18:27.745Z,72.92
2018-03-07T19:20:55.144Z,73.29
2018-03-07T19:23:22.557Z,72.60
2018-03-07T19:25:49.962Z,72.65
2018-03-07T19:28:17.360Z,72.28
2018-03-07T19:30:44.757Z,72.06
2018-03-07T19:33:12.200Z,72.16
2018-03-07T19:35:39.553Z,72.81
2018-03-07T19:38:06.959Z,75.73
2018-03-07T19:40:34.381Z,76.60
2018-03-07T19:43:01.764Z,77.84
2018-03-07T19:45:29.169Z,79.56
2018-03-07T19:47:56.563Z,80.04
2018-03-07T19:50:23.962Z,81.46
2018-03-07T19:52:51.361Z,81.92
2018-03-07T19:55:18.766Z,82.05
2018-03-07T19:57:46.162Z,82.30
2018-03-07T20:00:13.583Z,82.61
2018-03-07T20:02:40.969Z,83.04
2018-03-07T20:05:08.369Z,83.26
2018-03-07T20:07:35.760Z,83.33
2018-03-07T20:10:03.178Z,82.83
2018-03-07T20:12:30.572Z,82.18
2018-03-07T20:14:57.968Z,82.31
2018-03-07T20:17:25.369Z,82.46
2018-03-07T20:19:52.768Z,82.31
2018-03-07T20:22:20.166Z,82.85
2018-03-07T20:24:47.569Z,83.15
2018-03-07T20:27:14.996Z,82.83
2018-03-07T20:29:42.402Z,82.73
2018-03-07T20:32:09.809Z,82.91
2018-03-07T20:34:37.211Z,82.40
2018-03-07T20:37:04.612Z,82.88
2018-03-07T20:39:32.021Z,82.79
2018-03-07T20:41:59.413Z,83.22
2018-03-07T20:44:26.807Z,83.45
2018-03-07T20:46:54.215Z,82.98
2018-03-07T20:49:21.604Z,83.28
2018-03-07T20:51:49.009Z,83.44
2018-03-07T20:54:16.408Z,82.87
2018-03-07T20:56:43.812Z,82.61
2018-03-07T20:59:11.209Z,82.53
2018-03-07T21:01:38.621Z,82.83
2018-03-07T21:04:06.018Z,82.83
2018-03-07T21:06:33.430Z,82.39
2018-03-07T21:09:00.821Z,82.48
2018-03-07T21:11:28.225Z,82.76
2018-03-07T21:13:55.616Z,82.95
2018-03-07T21:16:23.017Z,83.43
2018-03-07T21:18:50.417Z,83.45
2018-03-07T21:21:17.829Z,83.24
2018-03-07T21:23:45.230Z,83.31
2018-03-07T21:26:13.619Z,83.35
2018-03-07T21:28:41.022Z,83.64
2018-03-07T21:31:08.438Z,83.59
2018-03-07T21:33:35.825Z,83.58
2018-03-07T21:36:03.234Z,83.59
2018-03-07T21:38:30.641Z,83.36
2018-03-07T21:40:58.052Z,83.49
2018-03-07T21:43:25.449Z,83.47
2018-03-07T21:45:52.846Z,82.69
2018-03-07T21:48:20.245Z,82.76
2018-03-07T21:50:47.637Z,82.55
2018-03-07T21:53:15.077Z,81.88
2018-03-07T21:55:42.440Z,81.16
2018-03-07T21:58:09.841Z,80.92
2018-03-07T22:02:39.973Z,79.20
2018-03-07T22:05:07.364Z,79.16
2018-03-07T22:07:34.787Z,79.20
2018-03-07T22:10:02.184Z,79.17
2018-03-07T22:12:29.605Z,78.88
2018-03-07T22:14:57.001Z,78.92
2018-03-07T22:17:24.409Z,78.38
2018-03-07T22:19:51.811Z,78.69
2018-03-07T22:22:19.217Z,78.42
2018-03-07T22:24:46.921Z,78.74
2018-03-07T22:27:15.364Z,78.53
2018-03-07T22:29:42.759Z,77.77
2018-03-07T22:32:10.177Z,78.21
2018-03-07T22:34:37.565Z,78.07
2018-03-07T22:37:04.982Z,77.50
2018-03-07T22:39:32.388Z,78.06
2018-03-07T22:41:59.828Z,77.39
2018-03-07T22:44:27.193Z,76.71
2018-03-07T22:46:54.594Z,75.76
2018-03-07T22:49:22.011Z,76.17
2018-03-07T22:51:49.405Z,76.66
2018-03-07T22:54:16.818Z,76.22
2018-03-07T22:56:44.215Z,76.15
2018-03-07T22:59:11.624Z,76.47
2018-03-07T23:01:39.018Z,76.23
2018-03-07T23:04:06.437Z,75.77
2018-03-07T23:06:33.835Z,76.18
2018-03-07T23:09:01.239Z,75.67
2018-03-07T23:11:28.633Z,75.72
2018-03-07T23:13:56.040Z,76.52
2018-03-07T23:16:23.434Z,76.17
2018-03-07T23:18:50.841Z,77.12
2018-03-07T23:21:18.269Z,77.79
2018-03-07T23:23:45.666Z,77.62
2018-03-07T23:26:13.067Z,77.05
2018-03-07T23:28:40.467Z,76.81
2018-03-07T23:31:07.865Z,76.85
2018-03-07T23:33:35.269Z,76.76
2018-03-07T23:36:02.672Z,76.57
2018-03-07T23:38:30.072Z,77.04
2018-03-07T23:40:57.466Z,77.30
2018-03-07T23:43:24.873Z,77.72
2018-03-07T23:45:52.274Z,77.51
2018-03-07T23:48:19.674Z,77.29
2018-03-07T23:50:47.782Z,78.43
2018-03-07T23:53:15.247Z,78.28
2018-03-07T23:55:42.592Z,78.42
2018-03-07T23:58:09.992Z,78.44
